Absecon, NJ

7:13 AM EST on March 04, 2015 (GMT -0500)
Coventry Village - Smithville - NJ | Change Station
CLOSE
Current Station
Personal Weather Station
Location: Galloway, NJ
Elevation: 69 ft
Nearby Weather Stations
Active Advisory: Winter Storm Warning Active Notice: Local Storm Report

Elev 69 ft 39.48 °N, 74.48 °W | Updated 3 minutes ago

Overcast
Overcast
39.9 °F
Feels Like 38 °F
N
3.2
Wind Variable Wind from NW

Today
High -- | Low -- °F
--% Chance of Precip.
Yesterday
High -- | Low -- °F
Precip. -- in
6:26 AM 5:53 PM
Waxing Gibbous, 99% visible
Pressure 29.86 in
Visibility 5.0 miles
Clouds Overcast 500 ft
Windchill 38 °F
Dew Point 40 °F
Humidity 99%
Rainfall 0.02 in
Snow Depth Not available.
UV 0 out of 12
Pollen .60 out of 12
Air Quality Not available.
Flu Activity Not available.
METAR KACY 041154Z 26008KT 5SM BR OVC005 05/04 A2986 RMK AO2 SLP110 60003 7//// T00500039 10050 20028 53013

More Conditions Fewer Conditions

Pressure 29.86 in
Visibility 5.0 miles
Clouds Overcast 500 ft
Windchill 38 °F
Dew Point 40 °F
Humidity 99%
Rainfall 0.02 in
Snow Depth Not available.
UV 0 out of 12
Pollen .60 out of 12
Air Quality Not available.
Flu Activity Not available.
METAR KACY 041154Z 26008KT 5SM BR OVC005 05/04 A2986 RMK AO2 SLP110 60003 7//// T00500039 10050 20028 53013

More Conditions Fewer Conditions

10-Day Weather Forecast

Almanac

Astronomy

Mar. 04, 2015 Rise Set
Actual Time
Civil Twilight
Nautical Twilight
Astronomical Twilight
Moon
Length of Visible Light
Length of Day
Tomorrow will be .
, % of the Moon is Illuminated

Today's Extremes

State Highs State Lows

Community

WunderPhotos

Upload Photos

1,802,437 photos uploaded!

WunderBlogs® & News

Nearby

Air Quality

  Air Quality AQ Index Pollutant
Not available.

Snow Depth

Station Depth Elevation

Earthquake Activity

City Distance Mag. Time & Date
Minimum magnitude displayed is 2.5.

Coastal Water Temperatures

Place Temperature

Nearby Weather Stations

Winter Storm Warning
Statement as of 5:48 AM EST on March 04, 2015

... Winter Storm Warning remains in effect from 11 PM this evening
to 7 PM EST Thursday...

* hazard types... a steady accumulating snow, possibly heavy at
times, from late tonight into Thursday.

* Snow accumulations... the potential for 5 to 9 inches.

* Timing... rain will change to snow overnight and the snow will
continue into Thursday.

* Impacts... widespread and substantial impacts on travel are
expected for late tonight and Thursday.

Precautionary/preparedness actions...

This Winter Storm Warning means that significant amounts of
snow are expected. The snow will make travel very hazardous or
impossible.